SWA4212 KSAN-KDEN
Flight info
| Callsign | SWA4212 |
|---|---|
| Flight time | 1h 47m |
| Altitude | 37000 |
| Route | ZZOOO4 MTBAL EED PATOK BUMMP SSKII3 |
| Aircraft | B738/M-SDE2E3FGHIRWXY/LB1 |
Departure
| Time | 2026-04-23 03:23 |
|---|---|
| Airport | San Diego International Airport (KSAN) |
Arrival
| Time | 2026-04-23 05:11 |
|---|---|
| Airport | Denver International Airport (KDEN) |
| Time | Latitude | Longitude | Altitude | Speed | Heading |
|---|---|---|---|---|---|
| 2026-04-23 02:56 | 32.73334 | -117.19645 | 24 ft | 0 kts | 127° |
| 2026-04-23 03:14 | 32.73337 | -117.19649 | 24 ft | 2 kts | 127° |
| 2026-04-23 03:15 | 32.73347 | -117.19664 | 27 ft | 2 kts | 127° |
| 2026-04-23 03:15 | 32.73356 | -117.19679 | 29 ft | 2 kts | 127° |
| 2026-04-23 03:15 | 32.73366 | -117.19695 | 28 ft | 2 kts | 127° |
| 2026-04-23 03:15 | 32.73376 | -117.19711 | 29 ft | 2 kts | 126° |
| 2026-04-23 03:16 | 32.73378 | -117.19714 | 29 ft | 0 kts | 126° |
| 2026-04-23 03:18 | 32.73376 | -117.19708 | 29 ft | 2 kts | 111° |
| 2026-04-23 03:18 | 32.73386 | -117.19672 | 24 ft | 7 kts | 62° |
| 2026-04-23 03:18 | 32.73397 | -117.19594 | 26 ft | 12 kts | 96° |
| 2026-04-23 03:19 | 32.73375 | -117.19481 | 31 ft | 16 kts | 105° |
| 2026-04-23 03:19 | 32.73341 | -117.19336 | 24 ft | 21 kts | 106° |
| 2026-04-23 03:19 | 32.73299 | -117.19158 | 27 ft | 24 kts | 107° |
| 2026-04-23 03:19 | 32.73249 | -117.18959 | 26 ft | 27 kts | 107° |
| 2026-04-23 03:20 | 32.73193 | -117.18734 | 27 ft | 30 kts | 106° |
| 2026-04-23 03:20 | 32.73131 | -117.18480 | 23 ft | 34 kts | 105° |
| 2026-04-23 03:20 | 32.73066 | -117.18211 | 22 ft | 34 kts | 105° |
| 2026-04-23 03:20 | 32.73004 | -117.17948 | 19 ft | 32 kts | 106° |
| 2026-04-23 03:21 | 32.72985 | -117.17871 | 21 ft | 7 kts | 106° |
| 2026-04-23 03:21 | 32.72968 | -117.17801 | 20 ft | 11 kts | 106° |
| 2026-04-23 03:21 | 32.72950 | -117.17694 | 18 ft | 15 kts | 86° |
| 2026-04-23 03:21 | 32.73001 | -117.17581 | 22 ft | 14 kts | 14° |
| 2026-04-23 03:22 | 32.73024 | -117.17602 | 22 ft | 5 kts | 291° |
| 2026-04-23 03:22 | 32.73029 | -117.17618 | 21 ft | 0 kts | 288° |
| 2026-04-23 03:22 | 32.73031 | -117.17625 | 22 ft | 8 kts | 288° |
| 2026-04-23 03:22 | 32.73124 | -117.18003 | 19 ft | 90 kts | 286° |
| 2026-04-23 03:23 | 32.73370 | -117.19022 | 47 ft | 162 kts | 286° |
| 2026-04-23 03:23 | 32.73694 | -117.20376 | 741 ft | 180 kts | 287° |
| 2026-04-23 03:23 | 32.74044 | -117.21852 | 1468 ft | 185 kts | 288° |
| 2026-04-23 03:23 | 32.74386 | -117.23303 | 2349 ft | 187 kts | 288° |
| 2026-04-23 03:24 | 32.74755 | -117.24889 | 2628 ft | 212 kts | 288° |
| 2026-04-23 03:24 | 32.75161 | -117.26644 | 3048 ft | 224 kts | 288° |
| 2026-04-23 03:24 | 32.75585 | -117.28434 | 3683 ft | 230 kts | 287° |
| 2026-04-23 03:24 | 32.76055 | -117.30331 | 4026 ft | 249 kts | 287° |
| 2026-04-23 03:25 | 32.76558 | -117.32334 | 4767 ft | 257 kts | 287° |
| 2026-04-23 03:25 | 32.77069 | -117.34355 | 5731 ft | 256 kts | 287° |
| 2026-04-23 03:25 | 32.77586 | -117.36403 | 6541 ft | 261 kts | 287° |
| 2026-04-23 03:25 | 32.78111 | -117.38483 | 7341 ft | 264 kts | 287° |
| 2026-04-23 03:26 | 32.78643 | -117.40570 | 8223 ft | 263 kts | 287° |
| 2026-04-23 03:26 | 32.79179 | -117.42642 | 9132 ft | 263 kts | 287° |
| 2026-04-23 03:26 | 32.79715 | -117.44702 | 9946 ft | 266 kts | 287° |
| 2026-04-23 03:26 | 32.80332 | -117.46789 | 10569 ft | 276 kts | 296° |
| 2026-04-23 03:27 | 32.81552 | -117.48595 | 10841 ft | 293 kts | 316° |
| 2026-04-23 03:27 | 32.83256 | -117.49855 | 11918 ft | 288 kts | 333° |
| 2026-04-23 03:27 | 32.85192 | -117.50285 | 13102 ft | 284 kts | 357° |
| 2026-04-23 03:27 | 32.87099 | -117.49669 | 14195 ft | 288 kts | 21° |
| 2026-04-23 03:28 | 32.88733 | -117.48198 | 14684 ft | 305 kts | 43° |
| 2026-04-23 03:28 | 32.89964 | -117.46104 | 14997 ft | 314 kts | 52° |
| 2026-04-23 03:28 | 32.91107 | -117.43868 | 14979 ft | 316 kts | 54° |
| 2026-04-23 03:28 | 32.92214 | -117.41619 | 14975 ft | 314 kts | 54° |
| 2026-04-23 03:29 | 32.93315 | -117.39377 | 14991 ft | 314 kts | 54° |
| 2026-04-23 03:29 | 32.94444 | -117.37094 | 15109 ft | 329 kts | 54° |
| 2026-04-23 03:29 | 32.95652 | -117.34678 | 15271 ft | 351 kts | 54° |
| 2026-04-23 03:29 | 32.96941 | -117.32109 | 15420 ft | 372 kts | 54° |
| 2026-04-23 03:30 | 32.98281 | -117.29441 | 15678 ft | 387 kts | 54° |
| 2026-04-23 03:30 | 32.99673 | -117.26665 | 16221 ft | 393 kts | 55° |
| 2026-04-23 03:30 | 33.01051 | -117.23912 | 16850 ft | 396 kts | 55° |
| 2026-04-23 03:30 | 33.02502 | -117.21016 | 17462 ft | 401 kts | 55° |
| 2026-04-23 03:31 | 33.03941 | -117.18145 | 18032 ft | 406 kts | 56° |
| 2026-04-23 03:31 | 33.05396 | -117.15245 | 18574 ft | 411 kts | 56° |
| 2026-04-23 03:31 | 33.06872 | -117.12302 | 19089 ft | 415 kts | 56° |
| 2026-04-23 03:31 | 33.08351 | -117.09349 | 19691 ft | 416 kts | 55° |
| 2026-04-23 03:32 | 33.09845 | -117.06367 | 20161 ft | 422 kts | 55° |
| 2026-04-23 03:32 | 33.11350 | -117.03366 | 20345 ft | 434 kts | 55° |
| 2026-04-23 03:32 | 33.12931 | -117.00233 | 20416 ft | 447 kts | 55° |
| 2026-04-23 03:32 | 33.14547 | -116.97031 | 20571 ft | 458 kts | 55° |
| 2026-04-23 03:33 | 33.16198 | -116.93756 | 20870 ft | 463 kts | 55° |
| 2026-04-23 03:33 | 33.17850 | -116.90474 | 21563 ft | 456 kts | 55° |
| 2026-04-23 03:33 | 33.19474 | -116.87238 | 22455 ft | 446 kts | 55° |
| 2026-04-23 03:33 | 33.21048 | -116.84080 | 23195 ft | 441 kts | 55° |
| 2026-04-23 03:34 | 33.22615 | -116.80939 | 23549 ft | 446 kts | 55° |
| 2026-04-23 03:34 | 33.24205 | -116.77736 | 23783 ft | 452 kts | 55° |
| 2026-04-23 03:34 | 33.25787 | -116.74544 | 24076 ft | 453 kts | 55° |
| 2026-04-23 03:34 | 33.27403 | -116.71278 | 24439 ft | 455 kts | 55° |
| 2026-04-23 03:35 | 33.29008 | -116.68026 | 24764 ft | 456 kts | 55° |
| 2026-04-23 03:35 | 33.30620 | -116.64756 | 25065 ft | 458 kts | 55° |
| 2026-04-23 03:35 | 33.32241 | -116.61458 | 25358 ft | 460 kts | 55° |
| 2026-04-23 03:35 | 33.33867 | -116.58155 | 25663 ft | 463 kts | 55° |
| 2026-04-23 03:36 | 33.35502 | -116.54831 | 25944 ft | 465 kts | 55° |
| 2026-04-23 03:36 | 33.37148 | -116.51485 | 26187 ft | 467 kts | 55° |
| 2026-04-23 03:36 | 33.38798 | -116.48125 | 26399 ft | 470 kts | 55° |
| 2026-04-23 03:36 | 33.40630 | -116.45021 | 26110 ft | 454 kts | 34° |
| 2026-04-23 03:37 | 33.42890 | -116.42433 | 25953 ft | 443 kts | 38° |
| 2026-04-23 03:37 | 33.45406 | -116.40740 | 25542 ft | 394 kts | 349° |
| 2026-04-23 03:37 | 33.48035 | -116.41112 | 24656 ft | 390 kts | 356° |
| 2026-04-23 03:37 | 33.50475 | -116.40070 | 25810 ft | 376 kts | 27° |
| 2026-04-23 03:38 | 33.52372 | -116.37848 | 26244 ft | 387 kts | 49° |
| 2026-04-23 03:38 | 33.53644 | -116.34955 | 26380 ft | 404 kts | 68° |
| 2026-04-23 03:38 | 33.54477 | -116.31693 | 26170 ft | 414 kts | 73° |
| 2026-04-23 03:38 | 33.55099 | -116.28247 | 25448 ft | 444 kts | 81° |
| 2026-04-23 03:39 | 33.55489 | -116.24506 | 25218 ft | 463 kts | 84° |
| 2026-04-23 03:39 | 33.55602 | -116.20633 | 25435 ft | 466 kts | 93° |
| 2026-04-23 03:39 | 33.55496 | -116.16735 | 25593 ft | 472 kts | 86° |
| 2026-04-23 03:39 | 33.56135 | -116.12878 | 25744 ft | 473 kts | 66° |
| 2026-04-23 03:40 | 33.57567 | -116.09355 | 26084 ft | 468 kts | 56° |
| 2026-04-23 03:40 | 33.59260 | -116.06033 | 26417 ft | 467 kts | 53° |
| 2026-04-23 03:40 | 33.61166 | -116.02886 | 26641 ft | 465 kts | 43° |
| 2026-04-23 03:40 | 33.63366 | -116.00049 | 26879 ft | 465 kts | 41° |
| 2026-04-23 03:41 | 33.65551 | -115.97248 | 27145 ft | 467 kts | 41° |
| 2026-04-23 03:41 | 33.67764 | -115.94383 | 27408 ft | 468 kts | 42° |
| 2026-04-23 03:41 | 33.69971 | -115.91498 | 27659 ft | 470 kts | 42° |
| 2026-04-23 03:41 | 33.72186 | -115.88581 | 27794 ft | 475 kts | 42° |
| 2026-04-23 03:42 | 33.74408 | -115.85641 | 28047 ft | 475 kts | 42° |
| 2026-04-23 03:42 | 33.76627 | -115.82695 | 28320 ft | 476 kts | 43° |
| 2026-04-23 03:42 | 33.78852 | -115.79735 | 28494 ft | 479 kts | 43° |
| 2026-04-23 03:42 | 33.81090 | -115.76758 | 28685 ft | 481 kts | 43° |
| 2026-04-23 03:43 | 33.83302 | -115.73814 | 28883 ft | 482 kts | 43° |
| 2026-04-23 03:43 | 33.85555 | -115.70813 | 29056 ft | 484 kts | 43° |
| 2026-04-23 03:43 | 33.87816 | -115.67801 | 29249 ft | 485 kts | 43° |
| 2026-04-23 03:43 | 33.90076 | -115.64786 | 29454 ft | 486 kts | 43° |
| 2026-04-23 03:44 | 33.92344 | -115.61758 | 29653 ft | 487 kts | 43° |
| 2026-04-23 03:44 | 33.94613 | -115.58726 | 29854 ft | 488 kts | 43° |
| 2026-04-23 03:44 | 33.96886 | -115.55688 | 30018 ft | 489 kts | 43° |
| 2026-04-23 03:44 | 33.99165 | -115.52639 | 30153 ft | 490 kts | 43° |
| 2026-04-23 03:45 | 34.03746 | -115.46503 | 30377 ft | 494 kts | 43° |
| 2026-04-23 03:45 | 34.06011 | -115.43465 | 30494 ft | 495 kts | 43° |
| 2026-04-23 03:45 | 34.08313 | -115.40374 | 30623 ft | 496 kts | 43° |
| 2026-04-23 03:46 | 34.10619 | -115.37274 | 30753 ft | 497 kts | 43° |
| 2026-04-23 03:46 | 34.12931 | -115.34164 | 30861 ft | 498 kts | 43° |
| 2026-04-23 03:46 | 34.17563 | -115.27926 | 31085 ft | 500 kts | 43° |
| 2026-04-23 03:47 | 34.19884 | -115.24794 | 31222 ft | 500 kts | 43° |
| 2026-04-23 03:47 | 34.22205 | -115.21661 | 31340 ft | 500 kts | 43° |
| 2026-04-23 03:47 | 34.24520 | -115.18532 | 31456 ft | 500 kts | 43° |
| 2026-04-23 03:47 | 34.26814 | -115.15432 | 31519 ft | 502 kts | 43° |
| 2026-04-23 03:48 | 34.29144 | -115.12278 | 31621 ft | 503 kts | 43° |
| 2026-04-23 03:48 | 34.31469 | -115.09127 | 31781 ft | 502 kts | 43° |
| 2026-04-23 03:48 | 34.33791 | -115.05977 | 31946 ft | 501 kts | 43° |
| 2026-04-23 03:48 | 34.36108 | -115.02833 | 32094 ft | 501 kts | 43° |
| 2026-04-23 03:49 | 34.38427 | -114.99682 | 32214 ft | 501 kts | 43° |
| 2026-04-23 03:49 | 34.40749 | -114.96526 | 32326 ft | 502 kts | 43° |
| 2026-04-23 03:49 | 34.43069 | -114.93370 | 32449 ft | 502 kts | 43° |
| 2026-04-23 03:49 | 34.45360 | -114.90248 | 32588 ft | 502 kts | 43° |
| 2026-04-23 03:50 | 34.47676 | -114.87091 | 32727 ft | 502 kts | 43° |
| 2026-04-23 03:50 | 34.49997 | -114.83924 | 32825 ft | 503 kts | 42° |
| 2026-04-23 03:50 | 34.54644 | -114.77576 | 33050 ft | 503 kts | 42° |
| 2026-04-23 03:51 | 34.56966 | -114.74397 | 33194 ft | 503 kts | 42° |
| 2026-04-23 03:51 | 34.59289 | -114.71215 | 33307 ft | 504 kts | 42° |
| 2026-04-23 03:51 | 34.63942 | -114.64836 | 33494 ft | 506 kts | 42° |
| 2026-04-23 03:52 | 34.66242 | -114.61677 | 33609 ft | 506 kts | 42° |
| 2026-04-23 03:52 | 34.68566 | -114.58481 | 33794 ft | 504 kts | 42° |
| 2026-04-23 03:52 | 34.70884 | -114.55289 | 33916 ft | 504 kts | 42° |
| 2026-04-23 03:52 | 34.73213 | -114.52083 | 33975 ft | 506 kts | 42° |
| 2026-04-23 03:53 | 34.77953 | -114.45805 | 34101 ft | 501 kts | 36° |
| 2026-04-23 03:53 | 34.83166 | -114.40222 | 34310 ft | 498 kts | 32° |
| 2026-04-23 03:54 | 34.88400 | -114.34777 | 34466 ft | 499 kts | 33° |
| 2026-04-23 03:54 | 34.93630 | -114.29207 | 34662 ft | 500 kts | 33° |
| 2026-04-23 03:55 | 34.98836 | -114.23602 | 34841 ft | 499 kts | 33° |
| 2026-04-23 03:55 | 35.03941 | -114.17822 | 35053 ft | 507 kts | 42° |
| 2026-04-23 03:56 | 35.06173 | -114.14459 | 35171 ft | 511 kts | 46° |
| 2026-04-23 03:56 | 35.08329 | -114.11008 | 35264 ft | 512 kts | 46° |
| 2026-04-23 03:56 | 35.10432 | -114.07572 | 35381 ft | 512 kts | 47° |
| 2026-04-23 03:56 | 35.12561 | -114.04085 | 35498 ft | 512 kts | 47° |
| 2026-04-23 03:57 | 35.16845 | -113.97130 | 35678 ft | 512 kts | 46° |
| 2026-04-23 03:57 | 35.18999 | -113.93668 | 35793 ft | 512 kts | 46° |
| 2026-04-23 03:57 | 35.21158 | -113.90208 | 35904 ft | 511 kts | 46° |
| 2026-04-23 03:58 | 35.25483 | -113.83293 | 36044 ft | 512 kts | 46° |
| 2026-04-23 03:58 | 35.29772 | -113.76420 | 36217 ft | 512 kts | 45° |
| 2026-04-23 03:59 | 35.34087 | -113.69495 | 36306 ft | 512 kts | 46° |
| 2026-04-23 03:59 | 35.38392 | -113.62556 | 36448 ft | 512 kts | 46° |
| 2026-04-23 04:00 | 35.42704 | -113.55594 | 36536 ft | 513 kts | 46° |
| 2026-04-23 04:00 | 35.47012 | -113.48626 | 36728 ft | 512 kts | 46° |
| 2026-04-23 04:01 | 35.49130 | -113.45193 | 36864 ft | 510 kts | 46° |
| 2026-04-23 04:01 | 35.51265 | -113.41729 | 36893 ft | 510 kts | 46° |
| 2026-04-23 04:01 | 35.55565 | -113.34755 | 36907 ft | 514 kts | 46° |
| 2026-04-23 04:02 | 35.59888 | -113.27726 | 36909 ft | 517 kts | 46° |
| 2026-04-23 04:02 | 35.64199 | -113.20697 | 36937 ft | 519 kts | 46° |
| 2026-04-23 04:03 | 35.68546 | -113.13594 | 36921 ft | 520 kts | 46° |
| 2026-04-23 04:03 | 35.72883 | -113.06494 | 36933 ft | 517 kts | 46° |
| 2026-04-23 04:04 | 35.77172 | -112.99450 | 36924 ft | 511 kts | 46° |
| 2026-04-23 04:04 | 35.81425 | -112.92458 | 36936 ft | 509 kts | 47° |
| 2026-04-23 04:05 | 35.85629 | -112.85537 | 36935 ft | 507 kts | 47° |
| 2026-04-23 04:05 | 35.89139 | -112.79748 | 36932 ft | 507 kts | 47° |
| 2026-04-23 04:06 | 35.94074 | -112.71592 | 36938 ft | 508 kts | 47° |
| 2026-04-23 04:06 | 35.98309 | -112.64579 | 36938 ft | 511 kts | 47° |
| 2026-04-23 04:07 | 36.02529 | -112.57573 | 36948 ft | 513 kts | 47° |
| 2026-04-23 04:07 | 36.06797 | -112.50471 | 36967 ft | 516 kts | 47° |
| 2026-04-23 04:08 | 36.11083 | -112.43326 | 36988 ft | 518 kts | 47° |
| 2026-04-23 04:08 | 36.15377 | -112.36151 | 36996 ft | 520 kts | 48° |
| 2026-04-23 04:09 | 36.18948 | -112.30178 | 37002 ft | 519 kts | 48° |
| 2026-04-23 04:09 | 36.23932 | -112.21813 | 36959 ft | 519 kts | 48° |
| 2026-04-23 04:10 | 36.27482 | -112.15841 | 36943 ft | 516 kts | 48° |
| 2026-04-23 04:10 | 36.31703 | -112.08727 | 36900 ft | 510 kts | 48° |
| 2026-04-23 04:11 | 36.35889 | -112.01665 | 36897 ft | 506 kts | 49° |
| 2026-04-23 04:11 | 36.40042 | -111.94646 | 36882 ft | 503 kts | 49° |
| 2026-04-23 04:12 | 36.44207 | -111.87594 | 36883 ft | 510 kts | 49° |
| 2026-04-23 04:12 | 36.48426 | -111.80440 | 36882 ft | 515 kts | 49° |
| 2026-04-23 04:13 | 36.52638 | -111.73269 | 36866 ft | 519 kts | 49° |
| 2026-04-23 04:13 | 36.56897 | -111.66001 | 36846 ft | 521 kts | 49° |
| 2026-04-23 04:14 | 36.61149 | -111.58730 | 36839 ft | 517 kts | 49° |
| 2026-04-23 04:14 | 36.65339 | -111.51547 | 36866 ft | 511 kts | 49° |
| 2026-04-23 04:15 | 36.69490 | -111.44426 | 36898 ft | 512 kts | 49° |
| 2026-04-23 04:16 | 36.75764 | -111.33636 | 36912 ft | 513 kts | 50° |
| 2026-04-23 04:16 | 36.79945 | -111.26424 | 36906 ft | 514 kts | 50° |
| 2026-04-23 04:17 | 36.84129 | -111.19189 | 36900 ft | 514 kts | 50° |
| 2026-04-23 04:17 | 36.88317 | -111.11931 | 36856 ft | 516 kts | 50° |
| 2026-04-23 04:18 | 36.92480 | -111.04704 | 36833 ft | 516 kts | 50° |
| 2026-04-23 04:18 | 36.96673 | -110.97407 | 36804 ft | 516 kts | 50° |
| 2026-04-23 04:19 | 37.00855 | -110.90113 | 36818 ft | 516 kts | 51° |
| 2026-04-23 04:19 | 37.05025 | -110.82824 | 36773 ft | 514 kts | 50° |
| 2026-04-23 04:20 | 37.09156 | -110.75582 | 36818 ft | 510 kts | 51° |
| 2026-04-23 04:20 | 37.13248 | -110.68403 | 36781 ft | 509 kts | 51° |
| 2026-04-23 04:21 | 37.17352 | -110.61185 | 36799 ft | 508 kts | 51° |
| 2026-04-23 04:21 | 37.21449 | -110.53964 | 36800 ft | 508 kts | 51° |
| 2026-04-23 04:22 | 37.25537 | -110.46741 | 36790 ft | 508 kts | 51° |
| 2026-04-23 04:22 | 37.29623 | -110.39508 | 36777 ft | 509 kts | 51° |
| 2026-04-23 04:23 | 37.33684 | -110.32305 | 36792 ft | 509 kts | 52° |
| 2026-04-23 04:23 | 37.37773 | -110.25032 | 36784 ft | 510 kts | 52° |
| 2026-04-23 04:24 | 37.41862 | -110.17746 | 36798 ft | 510 kts | 52° |
| 2026-04-23 04:24 | 37.45955 | -110.10435 | 36788 ft | 511 kts | 52° |
| 2026-04-23 04:25 | 37.50016 | -110.03166 | 36803 ft | 511 kts | 52° |
| 2026-04-23 04:25 | 37.54104 | -109.95834 | 36791 ft | 511 kts | 52° |
| 2026-04-23 04:26 | 37.58189 | -109.88490 | 36828 ft | 511 kts | 52° |
| 2026-04-23 04:26 | 37.62263 | -109.81150 | 36874 ft | 511 kts | 52° |
| 2026-04-23 04:27 | 37.66304 | -109.73850 | 36892 ft | 510 kts | 52° |
| 2026-04-23 04:27 | 37.70355 | -109.66518 | 36904 ft | 508 kts | 52° |
| 2026-04-23 04:28 | 37.76405 | -109.55542 | 36909 ft | 507 kts | 52° |
| 2026-04-23 04:28 | 37.80419 | -109.48237 | 36893 ft | 505 kts | 53° |
| 2026-04-23 04:29 | 37.84394 | -109.40987 | 36866 ft | 504 kts | 53° |
| 2026-04-23 04:29 | 37.88375 | -109.33711 | 36830 ft | 502 kts | 53° |
| 2026-04-23 04:30 | 37.92342 | -109.26444 | 36816 ft | 502 kts | 53° |
| 2026-04-23 04:30 | 37.96304 | -109.19171 | 36799 ft | 501 kts | 53° |
| 2026-04-23 04:31 | 38.00260 | -109.11892 | 36812 ft | 501 kts | 53° |
| 2026-04-23 04:31 | 38.04215 | -109.04598 | 36785 ft | 502 kts | 53° |
| 2026-04-23 04:32 | 38.08138 | -108.97348 | 36797 ft | 501 kts | 53° |
| 2026-04-23 04:32 | 38.11878 | -108.89870 | 36768 ft | 503 kts | 61° |
| 2026-04-23 04:33 | 38.14957 | -108.81901 | 36774 ft | 503 kts | 64° |
| 2026-04-23 04:33 | 38.17938 | -108.73864 | 36770 ft | 503 kts | 64° |
| 2026-04-23 04:34 | 38.20982 | -108.65927 | 36776 ft | 502 kts | 63° |
| 2026-04-23 04:34 | 38.24086 | -108.57983 | 36763 ft | 501 kts | 63° |
| 2026-04-23 04:35 | 38.27185 | -108.50051 | 36775 ft | 500 kts | 63° |
| 2026-04-23 04:35 | 38.30270 | -108.42123 | 36775 ft | 499 kts | 63° |
| 2026-04-23 04:36 | 38.33325 | -108.34241 | 36768 ft | 498 kts | 63° |
| 2026-04-23 04:36 | 38.36357 | -108.26395 | 36768 ft | 497 kts | 63° |
| 2026-04-23 04:37 | 38.39393 | -108.18519 | 36823 ft | 494 kts | 63° |
| 2026-04-23 04:37 | 38.42413 | -108.10667 | 36852 ft | 492 kts | 63° |
| 2026-04-23 04:38 | 38.45411 | -108.02852 | 36899 ft | 491 kts | 63° |
| 2026-04-23 04:38 | 38.48387 | -107.95037 | 36922 ft | 489 kts | 64° |
| 2026-04-23 04:39 | 38.51333 | -107.87226 | 36929 ft | 489 kts | 64° |
| 2026-04-23 04:39 | 38.54258 | -107.79456 | 36925 ft | 489 kts | 64° |
| 2026-04-23 04:40 | 38.57200 | -107.71627 | 36883 ft | 489 kts | 64° |
| 2026-04-23 04:40 | 38.60141 | -107.63785 | 36830 ft | 489 kts | 64° |
| 2026-04-23 04:41 | 38.63074 | -107.55940 | 36791 ft | 489 kts | 64° |
| 2026-04-23 04:41 | 38.65981 | -107.48152 | 36738 ft | 489 kts | 64° |
| 2026-04-23 04:42 | 38.68943 | -107.40316 | 36749 ft | 489 kts | 64° |
| 2026-04-23 04:42 | 38.71917 | -107.32483 | 36750 ft | 489 kts | 64° |
| 2026-04-23 04:43 | 38.73402 | -107.28560 | 36602 ft | 491 kts | 64° |
| 2026-04-23 04:43 | 38.74877 | -107.24651 | 36261 ft | 489 kts | 64° |
| 2026-04-23 04:43 | 38.76346 | -107.20752 | 35867 ft | 483 kts | 65° |
| 2026-04-23 04:43 | 38.77798 | -107.16888 | 35477 ft | 479 kts | 64° |
| 2026-04-23 04:44 | 38.79237 | -107.13057 | 35079 ft | 476 kts | 64° |
| 2026-04-23 04:44 | 38.80647 | -107.09295 | 34696 ft | 472 kts | 64° |
| 2026-04-23 04:44 | 38.82064 | -107.05510 | 34287 ft | 470 kts | 64° |
| 2026-04-23 04:44 | 38.83474 | -107.01742 | 33889 ft | 467 kts | 64° |
| 2026-04-23 04:45 | 38.84869 | -106.98008 | 33436 ft | 465 kts | 64° |
| 2026-04-23 04:45 | 38.86260 | -106.94279 | 33005 ft | 462 kts | 64° |
| 2026-04-23 04:45 | 38.87642 | -106.90570 | 32566 ft | 459 kts | 65° |
| 2026-04-23 04:45 | 38.89013 | -106.86887 | 32184 ft | 456 kts | 65° |
| 2026-04-23 04:46 | 38.90374 | -106.83227 | 31813 ft | 453 kts | 65° |
| 2026-04-23 04:46 | 38.91727 | -106.79582 | 31421 ft | 450 kts | 65° |
| 2026-04-23 04:46 | 38.93067 | -106.75967 | 31046 ft | 447 kts | 65° |
| 2026-04-23 04:46 | 38.94401 | -106.72365 | 30666 ft | 445 kts | 65° |
| 2026-04-23 04:47 | 38.95726 | -106.68784 | 30285 ft | 442 kts | 66° |
| 2026-04-23 04:47 | 38.97022 | -106.65275 | 29921 ft | 440 kts | 66° |
| 2026-04-23 04:47 | 38.98331 | -106.61730 | 29484 ft | 438 kts | 66° |
| 2026-04-23 04:47 | 38.99631 | -106.58205 | 29047 ft | 435 kts | 66° |
| 2026-04-23 04:48 | 39.00917 | -106.54710 | 28764 ft | 429 kts | 66° |
| 2026-04-23 04:48 | 39.02184 | -106.51251 | 28367 ft | 427 kts | 66° |
| 2026-04-23 04:48 | 39.03438 | -106.47822 | 27989 ft | 424 kts | 66° |
| 2026-04-23 04:48 | 39.04686 | -106.44404 | 27630 ft | 420 kts | 66° |
| 2026-04-23 04:49 | 39.05918 | -106.41027 | 27263 ft | 415 kts | 66° |
| 2026-04-23 04:49 | 39.07136 | -106.37687 | 26952 ft | 410 kts | 66° |
| 2026-04-23 04:49 | 39.08328 | -106.34415 | 26581 ft | 408 kts | 66° |
| 2026-04-23 04:49 | 39.09527 | -106.31118 | 26242 ft | 405 kts | 66° |
| 2026-04-23 04:50 | 39.10718 | -106.27841 | 25879 ft | 403 kts | 66° |
| 2026-04-23 04:50 | 39.11901 | -106.24580 | 25517 ft | 401 kts | 66° |
| 2026-04-23 04:50 | 39.13069 | -106.21361 | 25144 ft | 399 kts | 66° |
| 2026-04-23 04:50 | 39.14251 | -106.18098 | 24762 ft | 397 kts | 66° |
| 2026-04-23 04:51 | 39.15415 | -106.14883 | 24355 ft | 396 kts | 66° |
| 2026-04-23 04:51 | 39.16574 | -106.11679 | 24031 ft | 392 kts | 66° |
| 2026-04-23 04:51 | 39.17723 | -106.08504 | 23625 ft | 390 kts | 66° |
| 2026-04-23 04:51 | 39.18852 | -106.05379 | 23217 ft | 388 kts | 66° |
| 2026-04-23 04:52 | 39.19987 | -106.02233 | 22779 ft | 386 kts | 66° |
| 2026-04-23 04:52 | 39.21114 | -105.99106 | 22359 ft | 384 kts | 67° |
| 2026-04-23 04:52 | 39.22234 | -105.95996 | 21938 ft | 381 kts | 67° |
| 2026-04-23 04:52 | 39.23345 | -105.92908 | 21542 ft | 378 kts | 67° |
| 2026-04-23 04:53 | 39.24446 | -105.89841 | 21142 ft | 376 kts | 67° |
| 2026-04-23 04:53 | 39.25540 | -105.86796 | 20840 ft | 370 kts | 67° |
| 2026-04-23 04:53 | 39.26599 | -105.83850 | 20935 ft | 355 kts | 67° |
| 2026-04-23 04:53 | 39.27636 | -105.80981 | 20966 ft | 356 kts | 67° |
| 2026-04-23 04:54 | 39.28697 | -105.78033 | 20992 ft | 368 kts | 67° |
| 2026-04-23 04:54 | 39.29766 | -105.75056 | 20968 ft | 372 kts | 67° |
| 2026-04-23 04:54 | 39.30851 | -105.72037 | 20971 ft | 369 kts | 67° |
| 2026-04-23 04:54 | 39.31931 | -105.69037 | 20964 ft | 367 kts | 67° |
| 2026-04-23 04:55 | 39.33004 | -105.66059 | 20963 ft | 365 kts | 67° |
| 2026-04-23 04:55 | 39.34070 | -105.63094 | 20968 ft | 363 kts | 67° |
| 2026-04-23 04:55 | 39.35132 | -105.60139 | 20936 ft | 360 kts | 67° |
| 2026-04-23 04:55 | 39.36191 | -105.57219 | 20626 ft | 359 kts | 67° |
| 2026-04-23 04:56 | 39.37255 | -105.54296 | 20223 ft | 359 kts | 66° |
| 2026-04-23 04:56 | 39.38318 | -105.51376 | 19789 ft | 359 kts | 67° |
| 2026-04-23 04:56 | 39.39380 | -105.48461 | 19420 ft | 357 kts | 67° |
| 2026-04-23 04:56 | 39.40432 | -105.45567 | 19146 ft | 353 kts | 67° |
| 2026-04-23 04:57 | 39.41458 | -105.42745 | 18845 ft | 351 kts | 66° |
| 2026-04-23 04:57 | 39.42657 | -105.39995 | 18465 ft | 352 kts | 58° |
| 2026-04-23 04:57 | 39.44063 | -105.37407 | 18163 ft | 350 kts | 56° |
| 2026-04-23 04:57 | 39.45504 | -105.34886 | 17875 ft | 348 kts | 56° |
| 2026-04-23 04:58 | 39.46933 | -105.32370 | 17522 ft | 346 kts | 56° |
| 2026-04-23 04:58 | 39.48328 | -105.29867 | 17331 ft | 341 kts | 57° |
| 2026-04-23 04:58 | 39.49689 | -105.27389 | 17135 ft | 338 kts | 57° |
| 2026-04-23 04:58 | 39.51037 | -105.24912 | 16980 ft | 337 kts | 57° |
| 2026-04-23 04:59 | 39.52388 | -105.22417 | 16845 ft | 339 kts | 57° |
| 2026-04-23 04:59 | 39.53738 | -105.19921 | 16574 ft | 338 kts | 57° |
| 2026-04-23 04:59 | 39.55067 | -105.17462 | 16235 ft | 338 kts | 57° |
| 2026-04-23 04:59 | 39.56413 | -105.14967 | 15850 ft | 338 kts | 57° |
| 2026-04-23 05:00 | 39.57763 | -105.12464 | 15510 ft | 338 kts | 57° |
| 2026-04-23 05:00 | 39.59098 | -105.09986 | 15206 ft | 336 kts | 57° |
| 2026-04-23 05:00 | 39.60438 | -105.07498 | 14890 ft | 334 kts | 57° |
| 2026-04-23 05:00 | 39.61763 | -105.05033 | 14577 ft | 333 kts | 57° |
| 2026-04-23 05:01 | 39.63087 | -105.02569 | 14267 ft | 332 kts | 57° |
| 2026-04-23 05:01 | 39.64398 | -105.00128 | 14029 ft | 329 kts | 57° |
| 2026-04-23 05:01 | 39.65701 | -104.97701 | 13840 ft | 326 kts | 57° |
| 2026-04-23 05:01 | 39.66981 | -104.95313 | 13646 ft | 326 kts | 57° |
| 2026-04-23 05:02 | 39.68274 | -104.92899 | 13758 ft | 326 kts | 52° |
| 2026-04-23 05:02 | 39.69592 | -104.90430 | 13292 ft | 343 kts | 53° |
| 2026-04-23 05:02 | 39.70965 | -104.87871 | 13049 ft | 344 kts | 53° |
| 2026-04-23 05:02 | 39.72568 | -104.85609 | 12711 ft | 339 kts | 30° |
| 2026-04-23 05:03 | 39.74622 | -104.84346 | 12637 ft | 318 kts | 10° |
| 2026-04-23 05:03 | 39.76769 | -104.84004 | 12349 ft | 306 kts | 354° |
| 2026-04-23 05:03 | 39.78874 | -104.84005 | 12127 ft | 301 kts | 353° |
| 2026-04-23 05:03 | 39.80968 | -104.84009 | 11885 ft | 300 kts | 353° |
| 2026-04-23 05:04 | 39.83052 | -104.84001 | 11661 ft | 298 kts | 354° |
| 2026-04-23 05:04 | 39.85087 | -104.83984 | 11448 ft | 295 kts | 354° |
| 2026-04-23 05:04 | 39.87125 | -104.83962 | 11241 ft | 291 kts | 354° |
| 2026-04-23 05:04 | 39.89137 | -104.83939 | 11025 ft | 287 kts | 354° |
| 2026-04-23 05:05 | 39.91114 | -104.83915 | 10868 ft | 281 kts | 354° |
| 2026-04-23 05:05 | 39.93049 | -104.83891 | 10715 ft | 275 kts | 354° |
| 2026-04-23 05:05 | 39.94921 | -104.83859 | 10688 ft | 263 kts | 354° |
| 2026-04-23 05:05 | 39.96730 | -104.83821 | 10672 ft | 258 kts | 354° |
| 2026-04-23 05:06 | 39.98517 | -104.83776 | 10586 ft | 257 kts | 356° |
| 2026-04-23 05:06 | 40.00275 | -104.83355 | 10384 ft | 262 kts | 21° |
| 2026-04-23 05:06 | 40.01691 | -104.81940 | 10330 ft | 254 kts | 49° |
| 2026-04-23 05:06 | 40.02496 | -104.79996 | 10260 ft | 242 kts | 74° |
| 2026-04-23 05:07 | 40.02755 | -104.77899 | 10110 ft | 230 kts | 92° |
| 2026-04-23 05:07 | 40.02715 | -104.75832 | 9802 ft | 228 kts | 94° |
| 2026-04-23 05:07 | 40.02546 | -104.73779 | 9404 ft | 227 kts | 108° |
| 2026-04-23 05:07 | 40.01933 | -104.71937 | 9037 ft | 217 kts | 130° |
| 2026-04-23 05:08 | 40.00949 | -104.70596 | 8758 ft | 196 kts | 152° |
| 2026-04-23 05:08 | 39.99759 | -104.69811 | 8246 ft | 190 kts | 169° |
| 2026-04-23 05:08 | 39.98431 | -104.69489 | 7503 ft | 199 kts | 182° |
| 2026-04-23 05:08 | 39.97037 | -104.69511 | 6811 ft | 204 kts | 187° |
| 2026-04-23 05:09 | 39.95622 | -104.69541 | 6275 ft | 204 kts | 184° |
| 2026-04-23 05:09 | 39.94251 | -104.69557 | 5992 ft | 190 kts | 183° |
| 2026-04-23 05:09 | 39.93000 | -104.69570 | 5752 ft | 170 kts | 181° |
| 2026-04-23 05:09 | 39.91853 | -104.69583 | 5514 ft | 162 kts | 181° |
| 2026-04-23 05:10 | 39.90721 | -104.69597 | 5536 ft | 155 kts | 181° |
| 2026-04-23 05:10 | 39.89720 | -104.69618 | 5400 ft | 137 kts | 181° |
| 2026-04-23 05:10 | 39.88809 | -104.69629 | 5336 ft | 119 kts | 180° |
| 2026-04-23 05:10 | 39.88127 | -104.69633 | 5332 ft | 77 kts | 180° |
| 2026-04-23 05:11 | 39.87755 | -104.69589 | 5325 ft | 43 kts | 160° |
| 2026-04-23 05:11 | 39.87542 | -104.69450 | 5335 ft | 8 kts | 151° |
| 2026-04-23 05:11 | 39.87541 | -104.69449 | 5335 ft | 0 kts | 151° |
| 2026-04-23 05:12 | 39.87538 | -104.69447 | 5335 ft | 1 kts | 153° |
| 2026-04-23 05:12 | 39.87519 | -104.69437 | 5340 ft | 5 kts | 162° |
| 2026-04-23 05:12 | 39.87464 | -104.69425 | 5339 ft | 11 kts | 175° |
| 2026-04-23 05:12 | 39.87361 | -104.69423 | 5339 ft | 18 kts | 180° |
| 2026-04-23 05:13 | 39.87211 | -104.69426 | 5338 ft | 26 kts | 180° |
| 2026-04-23 05:13 | 39.87015 | -104.69427 | 5335 ft | 29 kts | 180° |
| 2026-04-23 05:13 | 39.86822 | -104.69430 | 5332 ft | 27 kts | 181° |
| 2026-04-23 05:14 | 39.86472 | -104.69392 | 5336 ft | 24 kts | 154° |
| 2026-04-23 05:14 | 39.86333 | -104.69294 | 5342 ft | 23 kts | 150° |
| 2026-04-23 05:14 | 39.86198 | -104.69194 | 5344 ft | 22 kts | 150° |
| 2026-04-23 05:14 | 39.86067 | -104.69094 | 5347 ft | 21 kts | 143° |
| 2026-04-23 05:15 | 39.86035 | -104.68919 | 5351 ft | 21 kts | 93° |
| 2026-04-23 05:15 | 39.86029 | -104.68735 | 5356 ft | 20 kts | 89° |
| 2026-04-23 05:15 | 39.86031 | -104.68555 | 5364 ft | 20 kts | 90° |
| 2026-04-23 05:15 | 39.86027 | -104.68381 | 5368 ft | 19 kts | 109° |
| 2026-04-23 05:16 | 39.85954 | -104.68427 | 5364 ft | 21 kts | 296° |
| 2026-04-23 05:16 | 39.86085 | -104.68502 | 5365 ft | 22 kts | 347° |
| 2026-04-23 05:16 | 39.86247 | -104.68509 | 5363 ft | 24 kts | 0° |
| 2026-04-23 05:16 | 39.86407 | -104.68496 | 5365 ft | 23 kts | 31° |
| 2026-04-23 05:17 | 39.86427 | -104.68302 | 5368 ft | 22 kts | 91° |
| 2026-04-23 05:17 | 39.86337 | -104.68192 | 5385 ft | 22 kts | 186° |
| 2026-04-23 05:17 | 39.86353 | -104.68348 | 5363 ft | 36 kts | 346° |
| 2026-04-23 05:17 | 39.86436 | -104.68183 | 5385 ft | 24 kts | 76° |
| 2026-04-23 05:18 | 39.86477 | -104.67983 | 5385 ft | 23 kts | 88° |
| 2026-04-23 05:18 | 39.86476 | -104.67779 | 5385 ft | 23 kts | 90° |
| 2026-04-23 05:18 | 39.86429 | -104.67582 | 5385 ft | 21 kts | 144° |
| 2026-04-23 05:18 | 39.86364 | -104.67573 | 5386 ft | 0 kts | 182° |